Randolph, Maine
Current Conditions -  °F | °C
As of 6:53 PM on Friday 24 Oct 2014 (Local Time) from KAUG Reporting Station
Overcast Overcast  
Wind Chill: 39°   Ceiling: 1800
Heat Index: 46°   Visibility: 10mi
Dew Point: 41°   Wind: 16mph
Humidity: 83%   Direction: 340°NNW
Pressure: 29.68"   Gusts: 25mph
Location:  44.23°N, 69.75°W
Report Text: KAUG 242253Z AUTO 34014G22KT 10SM OVC018 08/05 A2968 RMK AO2 RAB2159E08 SLP052 P0000 T00780050
Loading
Personal Weather Stations






























Interactive Weather Map
Tropical Storm Tracking
New forecast layout! Learn more

10-Day Weather Forecast

Advertisements
Track Severe Weather on mobile